createdAt,value
2023-03-17T00:00:16.510Z,58.15
2023-03-17T00:02:53.444Z,58.52
2023-03-17T00:05:34.118Z,58.79
2023-03-17T00:08:04.329Z,58.95
2023-03-17T00:10:33.674Z,59.07
2023-03-17T00:13:00.170Z,58.93
2023-03-17T00:15:35.374Z,57.47
2023-03-17T00:18:04.505Z,59.38
2023-03-17T00:20:32.545Z,58.33
2023-03-17T00:22:59.866Z,59.09
2023-03-17T00:25:28.283Z,58.17
2023-03-17T00:27:55.560Z,59.16
2023-03-17T00:30:22.943Z,58.54
2023-03-17T00:32:50.875Z,58.07
2023-03-17T00:35:22.042Z,57.11
2023-03-17T00:37:49.452Z,58.85
2023-03-17T00:40:17.037Z,59.03
2023-03-17T00:42:43.769Z,59.05
2023-03-17T00:45:10.762Z,59.47
2023-03-17T00:47:40.508Z,59.23
2023-03-17T00:50:07.436Z,61.09
2023-03-17T00:52:34.199Z,58.64
2023-03-17T00:55:01.953Z,59.39
2023-03-17T00:57:31.827Z,59.74
2023-03-17T01:00:00.388Z,58.75
2023-03-17T01:02:27.141Z,59.94
2023-03-17T01:05:05.420Z,59.39
2023-03-17T01:07:36.049Z,58.47
2023-03-17T01:10:06.821Z,59.71
2023-03-17T01:12:33.965Z,58.86
2023-03-17T01:15:00.489Z,59.34
2023-03-17T01:17:27.107Z,59.05
2023-03-17T01:19:53.771Z,59.22
2023-03-17T01:22:22.573Z,57.71
2023-03-17T01:24:49.040Z,58.31
2023-03-17T01:27:16.201Z,58.39
2023-03-17T01:29:43.191Z,58.79
2023-03-17T01:32:13.102Z,60.42
2023-03-17T01:34:39.820Z,60.72
2023-03-17T01:37:07.086Z,59.23
2023-03-17T01:39:33.588Z,59.11
2023-03-17T01:42:07.964Z,59.56
2023-03-17T01:44:34.702Z,60.49
2023-03-17T01:47:01.212Z,58.31
2023-03-17T01:49:33.276Z,57.40
2023-03-17T01:52:12.752Z,58.15
2023-03-17T01:55:03.227Z,59.63
2023-03-17T01:57:31.553Z,59.67
2023-03-17T02:00:06.109Z,58.86
2023-03-17T02:02:45.093Z,58.30
2023-03-17T02:05:13.509Z,62.96
2023-03-17T02:07:43.074Z,58.11
2023-03-17T02:10:10.003Z,59.59
2023-03-17T02:12:41.205Z,58.66
2023-03-17T02:15:08.098Z,57.72
2023-03-17T02:17:38.284Z,65.21
2023-03-17T02:20:17.263Z,59.06
2023-03-17T02:22:52.711Z,58.17
2023-03-17T02:25:21.603Z,59.46
2023-03-17T02:27:51.354Z,59.41
2023-03-17T02:30:19.712Z,59.04
2023-03-17T02:32:46.475Z,59.02
2023-03-17T02:35:13.472Z,58.95
2023-03-17T02:37:40.230Z,59.73
2023-03-17T02:40:07.793Z,59.03
2023-03-17T02:42:36.750Z,58.14
2023-03-17T02:45:03.501Z,58.81
2023-03-17T02:47:30.014Z,62.51
2023-03-17T02:49:56.779Z,58.73
2023-03-17T02:52:23.300Z,59.65
2023-03-17T02:54:49.794Z,58.83
2023-03-17T02:57:16.308Z,59.41
2023-03-17T02:59:45.208Z,59.21
2023-03-17T03:02:16.534Z,58.86
2023-03-17T03:04:43.355Z,60.10
2023-03-17T03:07:10.175Z,61.02
2023-03-17T03:09:36.886Z,59.63
2023-03-17T03:12:04.091Z,58.84
2023-03-17T03:14:30.605Z,56.66
2023-03-17T03:16:57.304Z,59.81
2023-03-17T03:19:24.407Z,58.31
2023-03-17T03:21:54.227Z,59.87
2023-03-17T03:24:20.837Z,61.52
2023-03-17T03:26:53.214Z,58.76
2023-03-17T03:29:19.821Z,59.22
2023-03-17T03:31:49.992Z,63.06
2023-03-17T03:34:16.642Z,60.18
2023-03-17T03:36:43.501Z,57.63
2023-03-17T03:39:11.015Z,58.23
2023-03-17T03:41:38.470Z,59.86
2023-03-17T03:44:05.140Z,59.36
2023-03-17T03:46:31.690Z,58.31
2023-03-17T03:48:58.190Z,57.07
2023-03-17T03:51:24.607Z,58.89
2023-03-17T03:53:51.171Z,59.43
2023-03-17T03:56:20.912Z,59.67
2023-03-17T03:58:47.626Z,58.93
2023-03-17T04:01:14.735Z,58.57
2023-03-17T04:03:41.351Z,59.40
2023-03-17T04:06:08.087Z,60.67
2023-03-17T04:08:34.966Z,58.12
2023-03-17T04:11:01.462Z,57.68
2023-03-17T04:13:28.226Z,58.28
2023-03-17T04:15:54.806Z,59.08
2023-03-17T04:18:21.286Z,58.28
2023-03-17T04:20:47.706Z,57.62
2023-03-17T04:23:14.215Z,58.36
2023-03-17T04:25:40.938Z,58.07
2023-03-17T04:28:10.540Z,58.86
2023-03-17T04:30:42.087Z,58.68
2023-03-17T04:33:08.887Z,57.16
2023-03-17T04:35:35.669Z,58.79
2023-03-17T04:38:04.003Z,57.78
2023-03-17T04:40:31.096Z,57.64
2023-03-17T04:42:57.978Z,60.08
2023-03-17T04:45:24.603Z,57.85
2023-03-17T04:47:51.211Z,58.83
2023-03-17T04:50:18.073Z,59.67
2023-03-17T04:52:44.604Z,58.51
2023-03-17T04:55:12.159Z,58.64
2023-03-17T04:57:38.970Z,60.00
2023-03-17T05:00:06.311Z,58.71
2023-03-17T05:02:40.260Z,58.58
2023-03-17T05:05:06.894Z,58.68
2023-03-17T05:07:34.205Z,57.51
2023-03-17T05:10:00.851Z,59.04
2023-03-17T05:12:29.975Z,58.35
2023-03-17T05:14:56.486Z,57.00
2023-03-17T05:17:23.026Z,58.46
2023-03-17T05:19:49.574Z,61.47
2023-03-17T05:22:18.515Z,59.12
2023-03-17T05:24:44.982Z,58.89
2023-03-17T05:27:16.942Z,58.97
2023-03-17T05:29:43.526Z,58.52
2023-03-17T05:32:10.154Z,59.08
2023-03-17T05:34:39.376Z,60.04
2023-03-17T05:37:06.093Z,58.54
2023-03-17T05:39:32.911Z,58.23
2023-03-17T05:41:59.466Z,58.10
2023-03-17T05:44:25.862Z,57.48
2023-03-17T05:46:55.971Z,57.49
2023-03-17T05:49:22.550Z,56.65
2023-03-17T05:52:00.120Z,57.36
2023-03-17T05:54:26.654Z,55.63
2023-03-17T05:56:53.118Z,57.66
2023-03-17T05:59:19.718Z,56.01
2023-03-17T06:01:46.231Z,57.19
2023-03-17T06:04:12.782Z,57.69
2023-03-17T06:06:39.365Z,57.58
2023-03-17T06:09:08.132Z,56.99
2023-03-17T06:11:34.635Z,54.88
2023-03-17T06:14:01.859Z,55.34
2023-03-17T06:16:33.336Z,56.16
2023-03-17T06:19:00.402Z,55.48
2023-03-17T06:21:27.288Z,55.60
2023-03-17T06:23:54.255Z,54.44
2023-03-17T06:26:20.781Z,54.96
2023-03-17T06:28:47.327Z,54.82
2023-03-17T06:31:18.031Z,56.76
2023-03-17T06:33:44.833Z,54.68
2023-03-17T06:36:11.843Z,56.47
2023-03-17T06:38:40.592Z,55.95
2023-03-17T06:41:07.057Z,55.75
2023-03-17T06:43:33.673Z,54.58
2023-03-17T06:46:01.323Z,54.20
2023-03-17T06:48:30.296Z,54.82
2023-03-17T06:50:56.752Z,53.54
2023-03-17T06:53:23.401Z,54.19
2023-03-17T06:55:53.641Z,52.49
2023-03-17T06:58:20.892Z,52.58
2023-03-17T07:00:49.051Z,53.60
2023-03-17T07:03:16.069Z,53.27
2023-03-17T07:05:42.912Z,51.75
2023-03-17T07:08:09.507Z,52.72
2023-03-17T07:10:36.743Z,51.98
2023-03-17T07:13:04.058Z,54.40
2023-03-17T07:15:34.990Z,52.72
2023-03-17T07:18:02.023Z,52.12
2023-03-17T07:20:28.531Z,52.20
2023-03-17T07:22:54.967Z,50.66
2023-03-17T07:25:21.669Z,51.32
2023-03-17T07:27:49.488Z,50.97
2023-03-17T07:30:23.380Z,50.47
2023-03-17T07:32:50.298Z,51.99
2023-03-17T07:35:16.779Z,50.04
2023-03-17T07:37:43.412Z,49.75
2023-03-17T07:40:24.833Z,49.98
2023-03-17T07:42:51.509Z,48.68
2023-03-17T07:45:17.955Z,49.22
2023-03-17T07:47:44.529Z,49.83
2023-03-17T07:50:11.437Z,48.54
2023-03-17T07:52:38.139Z,48.89
2023-03-17T07:55:16.582Z,49.37
2023-03-17T07:57:45.640Z,47.79
2023-03-17T08:00:13.863Z,47.46
2023-03-17T08:02:41.113Z,46.91
2023-03-17T08:05:10.666Z,47.09
2023-03-17T08:07:39.750Z,46.47
2023-03-17T08:10:07.577Z,48.90
2023-03-17T08:12:37.711Z,49.94
2023-03-17T08:15:04.676Z,46.02
2023-03-17T08:17:31.939Z,47.01
2023-03-17T08:19:59.155Z,45.64
2023-03-17T08:22:25.650Z,45.62
2023-03-17T08:24:52.138Z,46.50
2023-03-17T08:27:20.865Z,45.56
2023-03-17T08:29:48.259Z,46.35
2023-03-17T08:32:20.245Z,45.44
2023-03-17T08:34:48.560Z,46.13
2023-03-17T08:37:17.059Z,47.25
2023-03-17T08:39:43.542Z,46.65
2023-03-17T08:42:34.176Z,47.71
2023-03-17T08:45:00.694Z,46.28
2023-03-17T08:47:27.455Z,45.85
2023-03-17T08:49:56.523Z,45.47
2023-03-17T08:52:22.929Z,48.36
2023-03-17T08:54:49.485Z,46.82
2023-03-17T08:57:16.170Z,45.74
2023-03-17T08:59:42.946Z,46.80
2023-03-17T09:02:13.444Z,45.90
2023-03-17T09:04:40.400Z,45.88
2023-03-17T09:07:09.609Z,48.08
2023-03-17T09:09:39.251Z,46.33
2023-03-17T09:12:06.987Z,44.96
2023-03-17T09:14:42.756Z,45.23
2023-03-17T09:17:13.288Z,44.60
2023-03-17T09:19:40.558Z,47.87
2023-03-17T09:22:07.211Z,50.63
2023-03-17T09:24:33.918Z,45.42
2023-03-17T09:27:01.420Z,45.71
2023-03-17T09:29:27.961Z,44.73
2023-03-17T09:31:55.674Z,44.10
2023-03-17T09:34:22.597Z,44.33
2023-03-17T09:36:49.057Z,44.60
2023-03-17T09:39:16.207Z,43.58
2023-03-17T09:41:53.179Z,44.17
2023-03-17T09:44:35.076Z,44.79
2023-03-17T09:47:08.539Z,46.18
2023-03-17T09:49:38.176Z,44.78
2023-03-17T09:52:04.765Z,43.15
2023-03-17T09:54:33.364Z,44.22
2023-03-17T09:57:11.839Z,42.78
2023-03-17T09:59:47.092Z,44.75
2023-03-17T10:02:17.993Z,45.33
2023-03-17T10:04:45.107Z,41.47
2023-03-17T10:07:15.330Z,42.60
2023-03-17T10:09:56.243Z,42.26
2023-03-17T10:12:38.724Z,42.84
2023-03-17T10:15:13.572Z,40.19
2023-03-17T10:17:41.413Z,42.95
2023-03-17T10:20:12.283Z,42.90
2023-03-17T10:22:50.390Z,40.54
2023-03-17T10:25:18.492Z,41.47
2023-03-17T10:27:47.669Z,40.21
2023-03-17T10:30:18.907Z,41.48
2023-03-17T10:32:46.659Z,41.83
2023-03-17T10:35:15.025Z,41.08
2023-03-17T10:37:44.516Z,39.96
2023-03-17T10:40:25.262Z,41.28
2023-03-17T10:43:00.588Z,39.33
2023-03-17T10:45:32.500Z,42.95
2023-03-17T10:47:59.772Z,42.40
2023-03-17T10:50:32.180Z,37.98
2023-03-17T10:53:00.749Z,38.60
2023-03-17T10:55:54.483Z,39.44
2023-03-17T10:58:36.506Z,38.96
2023-03-17T11:01:18.013Z,38.31
2023-03-17T11:03:44.553Z,39.20
2023-03-17T11:06:12.830Z,40.13
2023-03-17T11:08:41.675Z,39.87
2023-03-17T11:11:21.358Z,39.05
2023-03-17T11:13:48.238Z,40.37
2023-03-17T11:16:22.196Z,38.21
2023-03-17T11:18:50.675Z,39.29
2023-03-17T11:21:20.114Z,40.22
2023-03-17T11:23:49.911Z,38.11
2023-03-17T11:26:28.899Z,39.82
2023-03-17T11:29:13.940Z,38.97
2023-03-17T11:32:00.816Z,38.23
2023-03-17T11:34:34.109Z,39.43
2023-03-17T11:37:20.939Z,39.61
2023-03-17T11:40:01.196Z,38.11
2023-03-17T11:42:31.853Z,38.83
2023-03-17T11:44:58.292Z,37.91
2023-03-17T11:47:31.894Z,36.49
2023-03-17T11:50:14.261Z,38.36
2023-03-17T11:52:53.434Z,39.20
2023-03-17T11:55:33.094Z,37.57
2023-03-17T11:58:02.458Z,38.73
2023-03-17T12:00:39.417Z,37.98
2023-03-17T12:03:11.303Z,38.06
2023-03-17T12:05:38.361Z,38.97
2023-03-17T12:08:18.222Z,38.40
2023-03-17T12:10:47.662Z,35.62
2023-03-17T12:13:17.143Z,37.63
2023-03-17T12:15:56.007Z,36.77
2023-03-17T12:18:25.674Z,39.80
2023-03-17T12:21:04.654Z,38.68
2023-03-17T12:23:49.162Z,37.63
2023-03-17T12:26:18.615Z,36.78
2023-03-17T12:28:57.414Z,37.43
2023-03-17T12:31:44.670Z,37.57
2023-03-17T12:34:20.511Z,37.46
2023-03-17T12:36:48.876Z,36.51
2023-03-17T12:39:19.083Z,37.62
2023-03-17T12:42:05.473Z,38.59
2023-03-17T12:44:31.931Z,36.86
2023-03-17T12:47:17.379Z,38.00
2023-03-17T12:49:53.042Z,36.82
2023-03-17T12:52:37.721Z,39.72
2023-03-17T12:55:09.721Z,35.91
2023-03-17T12:57:43.785Z,37.30
2023-03-17T13:00:39.794Z,38.72
2023-03-17T13:03:24.982Z,37.95
2023-03-17T13:05:54.138Z,40.04
2023-03-17T13:08:25.017Z,37.53
2023-03-17T13:10:51.559Z,37.18
2023-03-17T13:13:21.456Z,39.32
2023-03-17T13:15:50.497Z,37.57
2023-03-17T13:18:16.994Z,39.97
2023-03-17T13:20:43.471Z,36.78
2023-03-17T13:23:09.923Z,37.40
2023-03-17T13:25:39.405Z,37.69
2023-03-17T13:28:12.160Z,36.58
2023-03-17T13:30:38.818Z,38.05
2023-03-17T13:33:09.645Z,37.96
2023-03-17T13:36:02.676Z,36.38
2023-03-17T13:38:36.401Z,37.61
2023-03-17T13:41:12.810Z,38.70
2023-03-17T13:44:08.537Z,37.29
2023-03-17T13:46:41.777Z,41.73
2023-03-17T13:49:24.461Z,39.01
2023-03-17T13:52:07.619Z,37.01
2023-03-17T13:54:35.230Z,38.05
2023-03-17T13:57:23.900Z,39.73
2023-03-17T13:59:50.440Z,38.23
2023-03-17T14:02:18.823Z,38.73
2023-03-17T14:04:50.469Z,39.98
2023-03-17T14:07:18.968Z,40.48
2023-03-17T14:09:45.530Z,37.19
2023-03-17T14:12:22.003Z,42.65
2023-03-17T14:14:51.092Z,42.15
2023-03-17T14:17:24.246Z,40.87
2023-03-17T14:20:01.328Z,37.87
2023-03-17T14:22:27.798Z,41.27
2023-03-17T14:24:54.902Z,40.21
2023-03-17T14:27:22.676Z,41.16
2023-03-17T14:29:49.354Z,39.08
2023-03-17T14:32:18.412Z,37.90
2023-03-17T14:34:45.898Z,39.29
2023-03-17T14:37:12.667Z,40.03
2023-03-17T14:39:47.377Z,38.20
2023-03-17T14:42:14.182Z,37.76
2023-03-17T14:44:42.131Z,41.81
2023-03-17T14:47:23.594Z,41.91
2023-03-17T14:49:51.431Z,40.73
2023-03-17T14:52:19.068Z,39.33
2023-03-17T14:54:49.099Z,39.75
2023-03-17T14:57:15.904Z,38.70
2023-03-17T14:59:43.200Z,38.99
2023-03-17T15:02:18.067Z,38.84
2023-03-17T15:04:54.568Z,38.60
2023-03-17T15:07:30.094Z,39.68
2023-03-17T15:10:03.809Z,42.39
2023-03-17T15:12:31.070Z,41.36
2023-03-17T15:15:02.640Z,39.34
2023-03-17T15:17:31.877Z,40.47
2023-03-17T15:20:01.238Z,42.27
2023-03-17T15:22:44.325Z,40.51
2023-03-17T15:25:29.166Z,40.65
2023-03-17T15:27:55.916Z,40.61
2023-03-17T15:30:22.396Z,41.72
2023-03-17T15:33:00.155Z,41.50
2023-03-17T15:35:27.449Z,39.18
2023-03-17T15:37:54.651Z,40.81
2023-03-17T15:40:22.856Z,39.02
2023-03-17T15:42:49.410Z,39.64
2023-03-17T15:45:17.074Z,40.52
2023-03-17T15:47:47.476Z,41.32
2023-03-17T15:50:16.174Z,41.41
2023-03-17T15:52:45.855Z,42.08
2023-03-17T15:55:21.056Z,41.65
2023-03-17T15:57:54.717Z,43.42
2023-03-17T16:00:25.954Z,40.23
2023-03-17T16:02:58.795Z,40.02
2023-03-17T16:05:26.807Z,40.31
2023-03-17T16:07:54.331Z,40.82
2023-03-17T16:10:24.222Z,40.76
2023-03-17T16:12:51.155Z,42.20
2023-03-17T16:15:22.782Z,42.03
2023-03-17T16:17:53.418Z,40.05
2023-03-17T16:20:27.801Z,41.99
2023-03-17T16:22:55.060Z,43.35
2023-03-17T16:25:31.574Z,42.49
2023-03-17T16:27:59.606Z,41.78
2023-03-17T16:30:31.284Z,40.98
2023-03-17T16:33:00.350Z,40.06
2023-03-17T16:35:29.813Z,40.73
2023-03-17T16:37:56.428Z,41.20
2023-03-17T16:40:30.454Z,41.67
2023-03-17T16:42:57.157Z,42.12
2023-03-17T16:45:23.608Z,42.30
2023-03-17T16:50:49.359Z,44.12
2023-03-17T16:53:15.889Z,42.79
2023-03-17T16:55:42.544Z,43.40
2023-03-17T16:58:19.684Z,42.59
2023-03-17T17:00:47.248Z,41.71
2023-03-17T17:03:14.528Z,40.86
2023-03-17T17:05:41.707Z,42.10
2023-03-17T17:08:08.241Z,41.64
2023-03-17T17:10:35.643Z,42.15
2023-03-17T17:13:05.346Z,41.78
2023-03-17T17:15:35.279Z,42.52
2023-03-17T17:18:03.122Z,43.89
2023-03-17T17:20:37.841Z,43.51
2023-03-17T17:23:05.443Z,42.94
2023-03-17T17:25:32.511Z,42.00
2023-03-17T17:27:59.571Z,42.91
2023-03-17T17:30:28.278Z,42.88
2023-03-17T17:32:57.148Z,42.03
2023-03-17T17:35:24.213Z,42.17
2023-03-17T17:37:50.716Z,42.58
2023-03-17T17:40:18.558Z,42.25
2023-03-17T17:42:46.515Z,44.28
2023-03-17T17:45:13.780Z,41.79
2023-03-17T17:47:40.639Z,42.11
2023-03-17T17:50:08.069Z,43.03
2023-03-17T17:52:34.809Z,43.40
2023-03-17T17:55:01.600Z,42.64
2023-03-17T17:57:28.352Z,45.13
2023-03-17T17:59:55.237Z,43.70
2023-03-17T18:02:21.717Z,43.42
2023-03-17T18:04:58.627Z,47.08
2023-03-17T18:07:25.151Z,43.30
2023-03-17T18:09:51.629Z,42.63
2023-03-17T18:12:18.072Z,41.64
2023-03-17T18:14:47.671Z,41.27
2023-03-17T18:17:25.540Z,44.96
2023-03-17T18:19:55.120Z,43.77
2023-03-17T18:22:21.734Z,41.95
2023-03-17T18:24:50.263Z,43.00
2023-03-17T18:27:17.089Z,45.67
2023-03-17T18:29:51.037Z,42.75
2023-03-17T18:32:17.675Z,43.04
2023-03-17T18:34:45.512Z,43.50
2023-03-17T18:37:16.183Z,44.01
2023-03-17T18:39:42.997Z,44.64
2023-03-17T18:42:15.430Z,43.46
2023-03-17T18:44:42.266Z,44.99
2023-03-17T18:47:08.717Z,43.84
2023-03-17T18:49:35.280Z,43.36
2023-03-17T18:52:01.812Z,44.14
2023-03-17T18:54:28.753Z,45.20
2023-03-17T18:56:58.306Z,43.47
2023-03-17T18:59:24.753Z,43.28
2023-03-17T19:01:51.499Z,43.57
2023-03-17T19:04:18.002Z,45.73
2023-03-17T19:06:44.564Z,44.61
2023-03-17T19:09:13.399Z,44.11
2023-03-17T19:11:45.146Z,44.02
2023-03-17T19:14:20.651Z,45.19
2023-03-17T19:16:47.135Z,44.56
2023-03-17T19:19:13.794Z,44.08
2023-03-17T19:21:40.255Z,45.51
2023-03-17T19:24:08.987Z,45.13
2023-03-17T19:26:37.525Z,44.89
2023-03-17T19:29:05.252Z,43.04
2023-03-17T19:31:31.716Z,45.13
2023-03-17T19:33:58.330Z,45.65
2023-03-17T19:36:34.507Z,46.25
2023-03-17T19:39:08.921Z,44.73
2023-03-17T19:42:14.106Z,47.41
2023-03-17T19:44:46.676Z,45.48
2023-03-17T19:54:13.947Z,46.48
2023-03-17T19:56:40.631Z,47.33
2023-03-17T19:59:17.717Z,46.97
2023-03-17T20:01:44.204Z,48.46
2023-03-17T20:04:14.163Z,49.41
2023-03-17T20:06:40.667Z,48.03
2023-03-17T20:09:08.872Z,48.13
2023-03-17T20:11:35.678Z,46.38
2023-03-17T20:14:02.897Z,45.78
2023-03-17T20:16:32.783Z,47.61
2023-03-17T20:18:59.813Z,46.82
2023-03-17T20:21:26.516Z,47.63
2023-03-17T20:23:52.972Z,46.39
2023-03-17T20:26:22.054Z,47.19
2023-03-17T20:28:48.515Z,48.08
2023-03-17T20:31:15.904Z,48.98
2023-03-17T20:33:42.723Z,48.64
2023-03-17T20:36:09.500Z,47.96
2023-03-17T20:38:39.202Z,47.84
2023-03-17T20:41:07.637Z,48.30
2023-03-17T20:43:36.376Z,49.53
2023-03-17T20:46:05.701Z,48.54
2023-03-17T20:48:34.986Z,47.77
2023-03-17T20:51:04.484Z,49.50
2023-03-17T20:53:31.260Z,48.41
2023-03-17T20:55:57.737Z,49.59
2023-03-17T20:58:24.172Z,48.91
2023-03-17T21:00:51.445Z,48.97
2023-03-17T21:03:18.071Z,49.28
2023-03-17T21:05:45.801Z,49.59
2023-03-17T21:08:12.305Z,51.02
2023-03-17T21:10:38.710Z,50.62
2023-03-17T21:13:08.001Z,49.06
2023-03-17T21:15:37.346Z,52.90
2023-03-17T21:18:03.959Z,50.37
2023-03-17T21:20:30.709Z,51.13
2023-03-17T21:23:00.462Z,50.72
2023-03-17T21:25:27.014Z,50.49
2023-03-17T21:27:56.804Z,50.76
2023-03-17T21:30:29.788Z,52.08
2023-03-17T21:32:59.316Z,52.41
2023-03-17T21:35:30.624Z,51.70
2023-03-17T21:38:01.584Z,51.23
2023-03-17T21:40:31.944Z,52.08
2023-03-17T21:43:01.618Z,52.51
2023-03-17T21:45:30.720Z,51.71
2023-03-17T21:47:57.685Z,53.23
2023-03-17T21:50:26.977Z,52.67
2023-03-17T21:52:53.715Z,52.90
2023-03-17T21:55:20.153Z,52.28
2023-03-17T21:57:46.613Z,54.29
2023-03-17T22:00:13.314Z,54.16
2023-03-17T22:02:51.753Z,52.91
2023-03-17T22:10:39.463Z,53.11
2023-03-17T22:13:08.055Z,53.92
2023-03-17T22:15:35.080Z,53.70
2023-03-17T22:18:01.673Z,52.90
2023-03-17T22:20:30.156Z,54.32
2023-03-17T22:22:56.835Z,53.46
2023-03-17T22:25:23.645Z,53.38
2023-03-17T22:27:50.077Z,53.33
2023-03-17T22:30:17.356Z,54.14
2023-03-17T22:32:43.857Z,53.13
2023-03-17T22:35:11.275Z,53.89
2023-03-17T22:37:38.107Z,54.21
2023-03-17T22:40:06.384Z,55.28
2023-03-17T22:42:33.431Z,54.29
2023-03-17T22:44:59.944Z,54.03
2023-03-17T22:47:26.754Z,53.95
2023-03-17T22:49:53.181Z,54.58
2023-03-17T22:52:19.643Z,53.83
2023-03-17T22:54:46.163Z,54.80
2023-03-17T22:57:12.630Z,55.31
2023-03-17T22:59:39.075Z,53.40
2023-03-17T23:02:06.462Z,52.97
2023-03-17T23:04:33.850Z,54.11
2023-03-17T23:07:00.366Z,53.92
2023-03-17T23:09:26.854Z,55.53
2023-03-17T23:11:53.299Z,54.55
2023-03-17T23:14:19.731Z,53.71
2023-03-17T23:16:47.073Z,53.38
2023-03-17T23:19:13.559Z,53.81
2023-03-17T23:21:40.089Z,53.28
2023-03-17T23:24:07.895Z,53.21
2023-03-17T23:26:37.197Z,52.03
2023-03-17T23:29:04.569Z,53.78
2023-03-17T23:31:32.299Z,52.83
2023-03-17T23:33:58.842Z,52.67
2023-03-17T23:36:25.799Z,53.34
2023-03-17T23:38:52.441Z,53.58
2023-03-17T23:41:19.317Z,53.97
2023-03-17T23:43:46.876Z,53.05
2023-03-17T23:46:14.719Z,52.11
2023-03-17T23:48:43.038Z,52.17
2023-03-17T23:51:11.133Z,54.28
2023-03-17T23:53:39.614Z,52.37
2023-03-17T23:56:06.909Z,52.80
2023-03-17T23:58:33.428Z,52.69
